createdAt,value
2023-02-19T00:02:54.285Z,9.57
2023-02-19T00:07:58.450Z,9.56
2023-02-19T00:13:02.589Z,9.58
2023-02-19T00:18:06.761Z,9.58
2023-02-19T00:23:11.302Z,9.56
2023-02-19T00:28:15.083Z,9.56
2023-02-19T00:33:19.224Z,9.55
2023-02-19T00:38:23.519Z,9.55
2023-02-19T00:43:27.558Z,9.55
2023-02-19T00:48:31.773Z,9.54
2023-02-19T00:53:35.904Z,9.53
2023-02-19T00:58:40.068Z,9.52
2023-02-19T01:03:44.239Z,9.50
2023-02-19T01:08:48.400Z,9.49
2023-02-19T01:13:52.528Z,9.46
2023-02-19T01:18:56.708Z,9.46
2023-02-19T01:23:59.051Z,9.45
2023-02-19T01:29:03.174Z,9.44
2023-02-19T01:34:05.446Z,9.44
2023-02-19T01:39:09.564Z,9.44
2023-02-19T01:44:13.760Z,9.45
2023-02-19T01:49:17.880Z,9.45
2023-02-19T01:54:22.077Z,9.42
2023-02-19T01:59:26.223Z,9.42
2023-02-19T02:04:30.389Z,9.42
2023-02-19T02:09:34.581Z,9.39
2023-02-19T02:14:38.692Z,9.39
2023-02-19T02:19:42.849Z,9.38
2023-02-19T02:24:47.053Z,9.38
2023-02-19T02:29:51.213Z,9.37
2023-02-19T02:34:55.380Z,9.36
2023-02-19T02:39:59.502Z,9.36
2023-02-19T02:45:03.666Z,9.35
2023-02-19T02:50:07.861Z,9.33
2023-02-19T02:55:12.017Z,9.34
2023-02-19T03:00:16.167Z,9.30
2023-02-19T03:05:20.308Z,9.30
2023-02-19T03:10:24.490Z,9.29
2023-02-19T03:15:28.672Z,9.28
2023-02-19T03:20:30.920Z,9.25
2023-02-19T03:25:35.077Z,9.27
2023-02-19T03:30:39.218Z,9.26
2023-02-19T03:35:41.517Z,9.25
2023-02-19T03:40:45.671Z,9.23
2023-02-19T03:45:49.879Z,9.22
2023-02-19T03:50:54.008Z,9.21
2023-02-19T03:55:58.132Z,9.19
2023-02-19T04:01:02.310Z,9.18
2023-02-19T04:06:06.509Z,9.16
2023-02-19T04:11:10.990Z,9.14
2023-02-19T04:16:14.858Z,9.12
2023-02-19T04:21:18.958Z,9.10
2023-02-19T04:26:23.228Z,9.06
2023-02-19T04:31:27.364Z,9.03
2023-02-19T04:36:31.474Z,9.01
2023-02-19T04:41:35.603Z,9.01
2023-02-19T04:46:42.017Z,9.00
2023-02-19T04:51:43.995Z,9.01
2023-02-19T04:56:48.112Z,9.00
2023-02-19T05:01:52.289Z,8.98
2023-02-19T05:06:56.434Z,8.99
2023-02-19T05:12:00.617Z,8.96
2023-02-19T05:17:04.760Z,8.92
2023-02-19T05:22:07.178Z,8.88
2023-02-19T05:27:11.184Z,8.87
2023-02-19T05:32:15.399Z,8.88
2023-02-19T05:37:19.470Z,8.86
2023-02-19T05:42:23.640Z,8.88
2023-02-19T05:47:27.850Z,8.90
2023-02-19T05:52:31.969Z,8.89
2023-02-19T05:57:36.143Z,8.90
2023-02-19T06:02:40.385Z,8.87
2023-02-19T06:07:44.441Z,8.85
2023-02-19T06:12:48.662Z,8.85
2023-02-19T06:17:52.837Z,8.82
2023-02-19T06:22:56.942Z,8.80
2023-02-19T06:28:01.141Z,8.78
2023-02-19T06:33:05.316Z,8.76
2023-02-19T06:38:09.456Z,8.70
2023-02-19T06:43:13.613Z,8.69
2023-02-19T06:48:17.798Z,8.67
2023-02-19T06:53:21.935Z,8.65
2023-02-19T06:58:26.120Z,8.65
2023-02-19T07:03:30.252Z,8.65
2023-02-19T07:08:32.502Z,8.64
2023-02-19T07:13:36.687Z,8.66
2023-02-19T07:18:38.977Z,8.68
2023-02-19T07:23:43.125Z,8.71
2023-02-19T07:28:45.392Z,8.73
2023-02-19T07:33:49.551Z,8.75
2023-02-19T07:38:53.685Z,8.75
2023-02-19T07:43:57.939Z,8.75
2023-02-19T07:49:02.031Z,8.77
2023-02-19T07:54:06.218Z,8.76
2023-02-19T07:59:10.368Z,8.78
2023-02-19T08:04:14.564Z,8.76
2023-02-19T08:09:18.671Z,8.75
2023-02-19T08:14:22.840Z,8.75
2023-02-19T08:19:27.029Z,8.75
2023-02-19T08:24:31.181Z,8.74
2023-02-19T08:29:35.315Z,8.75
2023-02-19T08:39:43.661Z,8.84
2023-02-19T08:44:47.811Z,8.89
2023-02-19T08:49:51.965Z,8.95
2023-02-19T08:54:56.116Z,8.99
2023-02-19T09:00:00.336Z,9.07
2023-02-19T09:05:04.449Z,9.10
2023-02-19T09:10:08.643Z,9.20
2023-02-19T09:15:12.810Z,9.34
2023-02-19T09:20:15.060Z,9.33
2023-02-19T09:25:19.235Z,9.26
2023-02-19T09:30:21.529Z,9.34
2023-02-19T09:35:25.655Z,9.33
2023-02-19T09:40:29.847Z,9.32
2023-02-19T09:45:33.990Z,9.29
2023-02-19T09:50:38.158Z,9.36
2023-02-19T09:55:42.317Z,9.53
2023-02-19T10:00:46.449Z,9.72
2023-02-19T10:05:50.648Z,9.65
2023-02-19T10:10:54.814Z,9.61
2023-02-19T10:15:59.156Z,9.63
2023-02-19T10:21:03.127Z,9.54
2023-02-19T10:26:07.304Z,9.54
2023-02-19T10:31:11.806Z,9.55
2023-02-19T10:36:15.565Z,9.71
2023-02-19T10:41:19.744Z,10.03
2023-02-19T10:46:24.073Z,10.23
2023-02-19T10:51:28.084Z,9.94
2023-02-19T10:56:32.229Z,9.93
2023-02-19T11:01:36.420Z,9.87
2023-02-19T11:06:40.569Z,9.78
2023-02-19T11:11:44.698Z,9.89
2023-02-19T11:16:46.991Z,9.97
2023-02-19T11:21:51.129Z,10.00
2023-02-19T11:26:53.416Z,10.06
2023-02-19T11:31:57.679Z,9.95
2023-02-19T11:37:01.717Z,9.87
2023-02-19T11:42:05.929Z,10.09
2023-02-19T11:47:10.082Z,10.32
2023-02-19T11:52:14.200Z,10.37
2023-02-19T11:57:18.382Z,10.34
2023-02-19T12:02:22.534Z,10.47
2023-02-19T12:07:26.690Z,10.62
2023-02-19T12:12:30.900Z,10.50
2023-02-19T12:17:35.043Z,10.26
2023-02-19T12:22:39.213Z,10.12
2023-02-19T12:27:43.353Z,10.05
2023-02-19T12:32:47.512Z,10.02
2023-02-19T12:37:51.688Z,10.09
2023-02-19T12:42:55.820Z,10.16
2023-02-19T12:47:59.980Z,10.33
2023-02-19T12:58:08.314Z,10.44
2023-02-19T13:03:12.463Z,10.25
2023-02-19T13:08:16.646Z,10.13
2023-02-19T13:13:18.892Z,9.96
2023-02-19T13:18:21.258Z,9.73
2023-02-19T13:23:25.303Z,9.67
2023-02-19T13:28:29.525Z,9.64
2023-02-19T13:33:33.671Z,9.71
2023-02-19T13:38:35.945Z,9.89
2023-02-19T13:43:40.067Z,9.91
2023-02-19T13:48:44.260Z,10.03
2023-02-19T13:53:48.379Z,10.00
2023-02-19T13:58:52.582Z,9.85
2023-02-19T14:03:56.710Z,9.71
2023-02-19T14:09:00.919Z,9.61
2023-02-19T14:14:05.026Z,9.48
2023-02-19T14:19:09.208Z,9.35
2023-02-19T14:24:13.417Z,9.40
2023-02-19T14:29:17.546Z,9.41
2023-02-19T14:34:21.673Z,9.37
2023-02-19T14:39:25.883Z,9.24
2023-02-19T14:44:30.057Z,9.06
2023-02-19T14:49:34.183Z,8.92
2023-02-19T14:54:38.345Z,8.86
2023-02-19T14:59:42.507Z,8.85
2023-02-19T15:04:46.739Z,8.86
2023-02-19T15:09:50.792Z,8.92
2023-02-19T15:14:54.995Z,8.93
2023-02-19T15:19:59.141Z,8.90
2023-02-19T15:25:01.433Z,8.86
2023-02-19T15:30:05.607Z,8.86
2023-02-19T15:35:07.846Z,8.79
2023-02-19T15:40:12.037Z,8.73
2023-02-19T15:45:16.176Z,8.72
2023-02-19T15:50:20.349Z,8.67
2023-02-19T15:55:24.517Z,8.63
2023-02-19T16:00:28.701Z,8.58
2023-02-19T16:05:32.839Z,8.53
2023-02-19T16:10:37.015Z,8.54
2023-02-19T16:15:41.178Z,8.49
2023-02-19T16:20:45.325Z,8.45
2023-02-19T16:25:49.498Z,8.44
2023-02-19T16:30:53.620Z,8.43
2023-02-19T16:35:57.803Z,8.42
2023-02-19T16:41:01.958Z,8.39
2023-02-19T16:46:06.197Z,8.35
2023-02-19T16:51:10.665Z,8.33
2023-02-19T16:56:14.465Z,8.32
2023-02-19T17:01:18.717Z,8.30
2023-02-19T17:06:22.767Z,8.29
2023-02-19T17:11:26.899Z,8.29
2023-02-19T17:16:31.124Z,8.27
2023-02-19T17:21:33.372Z,8.19
2023-02-19T17:26:37.517Z,8.14
2023-02-19T17:31:41.901Z,8.12
2023-02-19T17:36:45.853Z,8.07
2023-02-19T17:41:50.004Z,8.05
2023-02-19T17:46:54.200Z,8.01
2023-02-19T17:51:58.324Z,8.02
2023-02-19T17:57:02.493Z,7.96
2023-02-19T18:02:06.662Z,7.92
2023-02-19T18:07:10.813Z,7.90
2023-02-19T18:12:14.965Z,7.88
2023-02-19T18:17:19.142Z,7.83
2023-02-19T18:22:23.330Z,7.79
2023-02-19T18:27:27.495Z,7.75
2023-02-19T18:32:31.671Z,7.72
2023-02-19T18:37:35.840Z,7.66
2023-02-19T18:42:39.961Z,7.62
2023-02-19T18:47:44.116Z,7.63
2023-02-19T18:52:48.287Z,7.59
2023-02-19T18:57:52.457Z,7.46
2023-02-19T19:02:56.579Z,7.29
2023-02-19T19:07:58.901Z,7.18
2023-02-19T19:13:03.030Z,7.08
2023-02-19T19:18:05.311Z,7.02
2023-02-19T19:23:09.447Z,6.95
2023-02-19T19:28:11.747Z,6.94
2023-02-19T19:33:17.611Z,6.91
2023-02-19T19:43:24.209Z,6.82
2023-02-19T19:48:28.420Z,6.76
2023-02-19T19:53:32.567Z,6.77
2023-02-19T19:58:36.756Z,6.78
2023-02-19T20:03:40.879Z,6.75
2023-02-19T20:08:45.074Z,6.77
2023-02-19T20:13:49.217Z,6.77
2023-02-19T20:18:53.381Z,6.74
2023-02-19T20:23:57.552Z,6.74
2023-02-19T20:29:01.678Z,6.74
2023-02-19T20:34:05.890Z,6.71
2023-02-19T20:39:10.028Z,6.72
2023-02-19T20:44:14.164Z,6.71
2023-02-19T20:49:18.378Z,6.72
2023-02-19T20:54:22.501Z,6.70
2023-02-19T20:59:26.716Z,6.70
2023-02-19T21:04:30.851Z,6.71
2023-02-19T21:09:35.000Z,6.76
2023-02-19T21:14:39.219Z,6.75
2023-02-19T21:19:41.453Z,6.68
2023-02-19T21:24:45.617Z,6.65
2023-02-19T21:29:49.776Z,6.64
2023-02-19T21:34:52.001Z,6.61
2023-02-19T21:39:56.169Z,6.57
2023-02-19T21:45:00.397Z,6.56
2023-02-19T21:50:04.534Z,6.54
2023-02-19T21:55:08.709Z,6.53
2023-02-19T22:00:12.856Z,6.48
2023-02-19T22:05:17.026Z,6.44
2023-02-19T22:10:21.187Z,6.37
2023-02-19T22:15:25.326Z,6.39
2023-02-19T22:20:29.479Z,6.33
2023-02-19T22:25:33.649Z,6.31
2023-02-19T22:30:37.888Z,6.31
2023-02-19T22:35:41.964Z,6.22
2023-02-19T22:40:46.110Z,6.14
2023-02-19T22:45:50.302Z,6.07
2023-02-19T22:50:54.464Z,5.98
2023-02-19T22:55:58.629Z,5.90
2023-02-19T23:01:02.849Z,5.84
2023-02-19T23:06:06.973Z,5.72
2023-02-19T23:11:11.092Z,5.59
2023-02-19T23:16:15.547Z,5.45
2023-02-19T23:21:17.566Z,5.35
2023-02-19T23:26:21.703Z,5.23
2023-02-19T23:31:24.091Z,5.14
2023-02-19T23:36:28.182Z,5.06
2023-02-19T23:41:32.300Z,4.97
2023-02-19T23:46:36.503Z,4.91
2023-02-19T23:56:44.789Z,4.82
